Time;durP1;ratioP1;P1;durP2;ratioP2;P2;SDS_P1;SDS_P2;PMS_P1;PMS_P2;Temp;Humidity;BMP_temperature;BMP_pressure;BME280_temperature;BME280_humidity;BME280_pressure;Samples;Min_cycle;Max_cycle;Signal;HPM_P1;HPM_P2
2023/04/02 00:00:34;;;;;;;5.95;4.40;;;;;;;10.96;96.12;98334.44;5091767;28;20032;-51
2023/04/02 00:03:00;;;;;;;9.07;4.65;;;;;;;10.94;96.96;98332.03;5107625;28;20115;-48
2023/04/02 00:05:33;;;;;;;11.48;5.45;;;;;;;10.97;97.76;98329.00;5107236;28;20135;-51
2023/04/02 00:08:19;;;;;;;8.77;4.63;;;;;;;11.02;97.93;98330.97;5107355;28;20052;-51
2023/04/02 00:11:00;;;;;;;8.65;4.60;;;;;;;11.16;98.67;98339.59;5090321;28;20118;-51
2023/04/02 00:13:46;;;;;;;4.90;4.40;;;;;;;11.30;99.39;98341.09;5090351;28;20020;-51
2023/04/02 00:16:20;;;;;;;6.32;4.80;;;;;;;11.42;98.99;98346.47;5091625;28;20503;-51
2023/04/02 00:18:51;;;;;;;8.50;4.13;;;;;;;11.54;99.23;98349.22;5090369;28;20034;-51
2023/04/02 00:21:26;;;;;;;9.05;4.50;;;;;;;11.57;98.11;98346.16;5107538;28;20036;-51
2023/04/02 00:23:57;;;;;;;7.75;4.65;;;;;;;11.60;97.82;98346.50;5091554;28;20055;-51
2023/04/02 00:26:39;;;;;;;8.27;4.60;;;;;;;11.71;98.15;98350.28;5106874;28;20048;-51
2023/04/02 00:29:06;;;;;;;7.03;4.15;;;;;;;11.76;97.54;98353.06;5091508;28;20056;-51
2023/04/02 00:31:33;;;;;;;6.18;4.28;;;;;;;11.83;97.51;98346.94;5107138;28;20109;-51
2023/04/02 00:34:03;;;;;;;6.47;4.50;;;;;;;11.78;96.88;98345.75;5091445;28;20503;-52
2023/04/02 00:36:34;;;;;;;6.85;4.00;;;;;;;11.85;97.00;98350.16;5091331;28;20066;-51
2023/04/02 00:39:03;;;;;;;6.78;4.85;;;;;;;11.84;96.50;98348.56;5091438;28;20041;-51
2023/04/02 00:41:34;;;;;;;7.47;4.75;;;;;;;11.82;96.80;98345.34;5091378;28;20039;-52
2023/04/02 00:44:01;;;;;;;7.60;5.47;;;;;;;11.95;97.25;98338.16;5091404;28;20063;-51
2023/04/02 00:46:45;;;;;;;7.88;4.78;;;;;;;12.03;96.47;98344.13;5109907;28;20071;-51
2023/04/02 00:49:40;;;;;;;6.13;4.90;;;;;;;11.91;95.08;98350.13;5095280;28;20374;-51
2023/04/02 00:52:09;;;;;;;5.38;4.78;;;;;;;11.82;95.94;98342.72;5094942;28;20039;-51
2023/04/02 00:55:09;;;;;;;8.60;6.05;;;;;;;11.73;95.63;98345.63;5110642;28;20019;-51
2023/04/02 00:57:35;;;;;;;5.78;5.28;;;;;;;11.63;95.86;98342.69;5110464;28;20431;-52
2023/04/02 01:00:23;;;;;;;6.50;5.10;;;;;;;11.56;95.71;98347.97;5110426;28;20035;-52
2023/04/02 01:03:27;;;;;;;7.25;4.95;;;;;;;11.59;95.89;98354.63;5094545;28;20401;-51
2023/04/02 01:06:09;;;;;;;6.43;3.90;;;;;;;11.44;95.39;98349.69;5094625;28;20035;-51
2023/04/02 01:08:46;;;;;;;7.63;4.65;;;;;;;11.36;94.92;98356.00;5094630;28;20028;-51
2023/04/02 01:11:15;;;;;;;7.65;4.70;;;;;;;11.39;95.66;98358.22;5110279;28;20027;-52
2023/04/02 01:13:46;;;;;;;5.50;4.72;;;;;;;11.37;94.77;98360.25;5094534;28;20043;-52
2023/04/02 01:16:31;;;;;;;5.25;4.65;;;;;;;11.31;94.49;98368.19;5094454;28;20020;-52
2023/04/02 01:19:25;;;;;;;9.52;4.90;;;;;;;11.22;94.57;98366.81;5110410;28;20038;-52
2023/04/02 01:22:46;;;;;;;6.22;4.20;;;;;;;11.19;95.26;98363.59;5110112;28;20020;-52
2023/04/02 01:25:27;;;;;;;6.25;4.53;;;;;;;11.37;95.45;98367.34;5089908;28;20040;-52
2023/04/02 01:28:20;;;;;;;5.28;4.38;;;;;;;11.32;94.32;98365.31;5094291;28;20078;-51
2023/04/02 01:30:58;;;;;;;5.18;4.18;;;;;;;11.35;94.61;98372.78;5092332;28;20040;-52
2023/04/02 01:33:31;;;;;;;7.45;4.10;;;;;;;11.40;94.59;98370.31;5109811;28;20075;-51
2023/04/02 01:36:16;;;;;;;5.70;4.20;;;;;;;11.42;94.70;98372.75;5109871;28;20035;-52
2023/04/02 01:39:11;;;;;;;7.78;5.20;;;;;;;11.39;94.35;98375.81;5094056;28;20067;-52
2023/04/02 01:41:47;;;;;;;10.10;5.40;;;;;;;11.32;94.33;98373.22;5093961;28;20024;-52
2023/04/02 01:44:19;;;;;;;6.32;5.43;;;;;;;11.26;95.48;98383.78;5092695;28;20440;-51
2023/04/02 01:46:48;;;;;;;6.75;5.22;;;;;;;11.29;95.64;98376.28;5093885;28;20107;-52
2023/04/02 01:49:18;;;;;;;9.93;4.65;;;;;;;11.40;95.57;98372.16;5109592;28;20028;-52
2023/04/02 01:51:50;;;;;;;8.55;4.93;;;;;;;11.37;94.92;98376.03;5076210;28;20122;-52
2023/04/02 01:54:16;;;;;;;7.15;4.93;;;;;;;11.49;95.41;98384.03;5093745;28;20075;-52
2023/04/02 01:56:45;;;;;;;8.40;5.07;;;;;;;11.53;95.06;98366.81;5093334;28;20101;-52
2023/04/02 01:59:13;;;;;;;9.10;4.65;;;;;;;11.59;94.99;98368.56;5093848;28;20032;-51
2023/04/02 02:01:50;;;;;;;6.75;4.50;;;;;;;11.74;95.14;98377.97;5075683;28;20085;-52
2023/04/02 02:04:17;;;;;;;5.15;4.43;;;;;;;11.81;94.57;98370.81;5075607;28;20024;-52
2023/04/02 02:06:44;;;;;;;8.80;5.50;;;;;;;11.74;93.64;98376.13;5109131;28;20457;-52
2023/04/02 02:09:21;;;;;;;12.63;5.35;;;;;;;11.59;93.27;98378.28;5109055;28;20112;-52
2023/04/02 02:11:47;;;;;;;7.75;4.70;;;;;;;11.60;94.22;98377.25;5093376;28;20031;-52
2023/04/02 02:14:25;;;;;;;5.50;4.68;;;;;;;11.55;90.78;98379.72;5093377;28;20112;-52
2023/04/02 02:16:55;;;;;;;7.68;5.32;;;;;;;11.49;91.46;98378.78;5109212;28;20055;-52
2023/04/02 02:19:42;;;;;;;6.65;4.38;;;;;;;11.38;91.56;98380.25;5093190;28;20111;-52
2023/04/02 02:22:27;;;;;;;8.63;5.65;;;;;;;11.36;91.37;98384.09;5093145;28;20016;-52
2023/04/02 02:24:56;;;;;;;6.75;4.50;;;;;;;11.35;91.79;98388.56;5093014;28;20642;-53
2023/04/02 02:27:22;;;;;;;5.57;5.05;;;;;;;11.32;91.84;98393.44;5092995;28;20500;-52
2023/04/02 02:30:23;;;;;;;8.50;5.57;;;;;;;11.27;91.15;98388.81;5093071;28;20054;-52
2023/04/02 02:33:35;;;;;;;10.57;5.07;;;;;;;11.35;90.95;98396.44;5092995;28;20047;-52
2023/04/02 02:36:00;;;;;;;6.30;5.00;;;;;;;11.31;90.87;98403.13;5091201;28;20111;-52
2023/04/02 02:38:44;;;;;;;7.68;5.22;;;;;;;11.27;90.67;98394.06;5092925;28;20020;-52
2023/04/02 02:41:38;;;;;;;5.97;5.03;;;;;;;11.35;91.57;98401.69;5074697;28;20023;-52
2023/04/02 02:44:12;;;;;;;10.27;5.43;;;;;;;11.46;91.89;98391.53;5092735;28;20111;-52
2023/04/02 02:46:44;;;;;;;5.97;5.00;;;;;;;11.48;91.06;98397.38;5108344;28;20028;-52
2023/04/02 02:49:20;;;;;;;10.50;5.30;;;;;;;11.58;91.25;98397.69;5092719;28;20485;-52
2023/04/02 02:52:08;;;;;;;7.80;5.75;;;;;;;11.40;89.21;98401.84;5091541;28;20062;-52
2023/04/02 02:54:39;;;;;;;47.45;39.40;;;;;;;11.15;89.84;98398.41;5084816;28;20036;-52
2023/04/02 02:57:09;;;;;;;6.45;5.80;;;;;;;11.01;90.45;98392.41;5092599;28;20082;-52
2023/04/02 02:59:36;;;;;;;8.10;5.18;;;;;;;10.98;90.33;98408.56;5108233;28;20028;-52
2023/04/02 03:02:03;;;;;;;5.65;5.03;;;;;;;11.02;91.38;98411.59;5108205;28;20024;-52
2023/04/02 03:04:29;;;;;;;6.28;5.05;;;;;;;11.15;91.84;98408.91;5092560;28;20024;-52
2023/04/02 03:06:57;;;;;;;6.72;5.22;;;;;;;11.22;90.78;98409.66;5091126;28;20024;-52
2023/04/02 03:09:51;;;;;;;6.20;4.43;;;;;;;11.22;90.09;98411.47;5091791;28;20145;-52
2023/04/02 03:12:45;;;;;;;5.85;4.70;;;;;;;11.24;90.12;98406.81;5083537;28;20059;-52
2023/04/02 03:15:33;;;;;;;8.70;5.05;;;;;;;11.29;90.72;98415.69;5107958;28;20464;-52
2023/04/02 03:18:10;;;;;;;7.38;4.60;;;;;;;11.39;90.88;98418.66;5074121;28;20028;-52
2023/04/02 03:20:52;;;;;;;7.65;4.60;;;;;;;11.52;90.92;98419.56;5107891;28;20469;-52
2023/04/02 03:23:42;;;;;;;6.45;4.43;;;;;;;11.63;90.58;98421.53;5107795;28;20051;-52
2023/04/02 03:26:24;;;;;;;9.07;5.35;;;;;;;11.78;91.33;98416.75;5091860;28;20040;-52
2023/04/02 03:28:59;;;;;;;6.22;4.45;;;;;;;11.89;91.41;98414.47;5107690;28;20048;-52
2023/04/02 03:31:40;;;;;;;6.55;5.25;;;;;;;11.86;91.24;98414.88;5091254;28;20040;-52
2023/04/02 03:34:24;;;;;;;10.98;5.63;;;;;;;11.69;90.07;98425.09;5092064;28;20031;-52
2023/04/02 03:37:15;;;;;;;9.52;5.07;;;;;;;11.65;90.97;98423.91;5107665;28;20454;-52
2023/04/02 03:39:58;;;;;;;9.35;5.60;;;;;;;11.74;91.18;98425.28;5107682;28;20477;-52
2023/04/02 03:42:27;;;;;;;10.00;5.13;;;;;;;11.91;91.60;98420.31;5073789;28;20024;-52
2023/04/02 03:45:16;;;;;;;8.57;4.70;;;;;;;11.98;90.28;98419.25;5091900;28;20023;-52
2023/04/02 03:47:54;;;;;;;7.68;4.97;;;;;;;12.23;91.16;98418.41;5107436;28;20024;-52
2023/04/02 03:50:35;;;;;;;9.05;6.22;;;;;;;12.27;90.88;98422.19;5091908;28;20382;-52
2023/04/02 03:53:03;;;;;;;8.43;5.65;;;;;;;12.08;91.49;98417.97;5107471;28;20028;-52
2023/04/02 03:55:38;;;;;;;9.48;6.18;;;;;;;11.99;92.04;98420.03;5107422;28;20031;-49
2023/04/02 03:58:33;;;;;;;6.65;5.13;;;;;;;12.04;91.49;98419.41;5091812;28;20509;-50
2023/04/02 04:01:18;;;;;;;7.53;5.40;;;;;;;12.01;91.43;98428.50;5091797;28;20107;-49
2023/04/02 04:03:49;;;;;;;6.70;5.35;;;;;;;11.87;91.04;98429.63;5091795;28;20047;-49
2023/04/02 04:06:27;;;;;;;9.25;5.30;;;;;;;11.75;90.96;98435.59;5091610;28;20469;-49
2023/04/02 04:09:21;;;;;;;11.57;5.20;;;;;;;11.72;90.48;98429.94;5107322;28;20024;-51
2023/04/02 04:11:58;;;;;;;5.90;4.30;;;;;;;11.54;90.25;98426.22;5091623;28;20016;-52
2023/04/02 04:14:31;;;;;;;6.97;4.68;;;;;;;11.53;91.19;98431.69;5107293;28;20020;-52
2023/04/02 04:17:22;;;;;;;8.10;4.28;;;;;;;11.59;90.45;98431.66;5091859;28;20093;-52
2023/04/02 04:19:59;;;;;;;6.30;4.63;;;;;;;11.60;89.21;98429.81;5109348;28;20485;-52
2023/04/02 04:22:32;;;;;;;5.97;4.63;;;;;;;11.59;89.36;98430.84;5094337;28;20028;-52
2023/04/02 04:25:00;;;;;;;6.43;4.25;;;;;;;11.56;89.23;98433.91;5095342;28;20048;-52
2023/04/02 04:27:52;;;;;;;9.73;4.43;;;;;;;11.56;89.00;98437.31;5111082;28;20408;-52
2023/04/02 04:30:33;;;;;;;5.75;3.72;;;;;;;11.69;89.80;98439.06;5111092;28;20039;-52
2023/04/02 04:33:09;;;;;;;6.47;4.65;;;;;;;11.71;89.07;98444.09;5095310;28;20035;-52
2023/04/02 04:35:48;;;;;;;7.50;4.43;;;;;;;11.58;88.64;98443.16;5111081;28;20452;-52
2023/04/02 04:38:38;;;;;;;7.18;4.47;;;;;;;11.45;89.16;98445.06;5094006;28;20028;-52
2023/04/02 04:41:09;;;;;;;6.57;4.57;;;;;;;11.58;91.14;98442.38;5095462;28;20546;-50
2023/04/02 04:43:47;;;;;;;8.10;5.10;;;;;;;11.59;90.62;98447.44;5095391;28;20061;-50
2023/04/02 04:46:24;;;;;;;11.30;4.93;;;;;;;11.60;91.81;98446.41;5110731;28;20047;-52
2023/04/02 04:48:56;;;;;;;11.52;5.32;;;;;;;11.90;93.01;98452.91;5095090;28;20035;-52
2023/04/02 04:51:46;;;;;;;8.52;5.32;;;;;;;12.10;92.50;98442.22;5110682;28;20516;-52
2023/04/02 04:54:14;;;;;;;9.52;5.00;;;;;;;12.07;92.25;98453.94;5094581;28;20520;-52
2023/04/02 04:56:46;;;;;;;5.75;4.93;;;;;;;12.03;92.74;98458.03;5094940;28;20132;-52
2023/04/02 04:59:21;;;;;;;8.60;5.75;;;;;;;12.07;93.51;98455.78;5110515;28;20028;-52
2023/04/02 05:02:17;;;;;;;8.63;4.72;;;;;;;12.17;93.72;98454.28;5110575;28;20069;-52
2023/04/02 05:04:48;;;;;;;12.73;6.03;;;;;;;12.18;93.86;98458.53;5094190;28;20486;-50
2023/04/02 05:07:31;;;;;;;13.18;6.88;;;;;;;12.11;94.66;98455.16;5110272;28;20122;-49
2023/04/02 05:10:24;;;;;;;7.85;6.03;;;;;;;12.07;94.84;98463.69;5094682;28;20058;-48
2023/04/02 05:12:56;;;;;;;19.42;8.18;;;;;;;11.95;96.24;98471.47;5094833;28;20028;-51
2023/04/02 05:15:28;;;;;;;12.57;8.25;;;;;;;11.93;96.81;98470.88;5093272;28;20123;-51
2023/04/02 05:18:18;;;;;;;9.65;7.35;;;;;;;11.89;98.11;98467.88;5094459;28;20027;-51
2023/04/02 05:20:53;;;;;;;17.42;8.88;;;;;;;11.86;98.05;98477.97;5094381;28;20473;-51
2023/04/02 05:23:33;;;;;;;10.85;8.30;;;;;;;11.67;98.79;98483.16;5093156;28;20059;-51
2023/04/02 05:26:13;;;;;;;15.57;8.13;;;;;;;11.77;100.00;98482.69;5109700;28;20059;-51
2023/04/02 05:28:59;;;;;;;44.40;11.05;;;;;;;11.83;100.00;98486.28;5094346;28;20052;-50
2023/04/02 05:31:47;;;;;;;18.67;10.93;;;;;;;11.76;100.00;98483.72;5093580;28;20024;-51
2023/04/02 05:34:26;;;;;;;15.32;9.90;;;;;;;11.59;100.00;98484.22;5093163;28;20024;-51
2023/04/02 05:36:54;;;;;;;13.60;8.38;;;;;;;11.67;100.00;98484.97;5109782;28;20020;-51
2023/04/02 05:39:25;;;;;;;12.88;7.32;;;;;;;11.62;100.00;98490.06;5109752;28;20066;-51
2023/04/02 05:42:03;;;;;;;11.75;8.15;;;;;;;11.25;100.00;98490.69;5092815;28;20054;-51
2023/04/02 05:44:32;;;;;;;9.88;7.00;;;;;;;11.10;100.00;98500.63;5109665;28;20032;-51
2023/04/02 05:47:00;;;;;;;7.57;6.80;;;;;;;10.99;100.00;98496.84;5092789;28;20470;-51
2023/04/02 05:49:51;;;;;;;13.57;8.20;;;;;;;10.96;100.00;98487.53;5109850;28;20035;-50
2023/04/02 05:52:24;;;;;;;16.33;7.05;;;;;;;10.95;100.00;98504.31;5094089;28;20800;-50
2023/04/02 05:54:53;;;;;;;13.38;7.10;;;;;;;11.02;100.00;98511.38;5109789;28;20036;-50
2023/04/02 05:57:24;;;;;;;9.75;5.32;;;;;;;11.08;100.00;98513.97;5109363;28;20454;-50
2023/04/02 05:59:56;;;;;;;13.45;6.28;;;;;;;11.17;100.00;98514.56;5093632;28;20032;-50
2023/04/02 06:02:40;;;;;;;14.55;5.72;;;;;;;11.44;100.00;98509.97;5109253;28;20028;-51
2023/04/02 06:05:14;;;;;;;15.27;5.30;;;;;;;11.52;100.00;98517.63;5093536;28;20028;-50
2023/04/02 06:08:23;;;;;;;11.33;4.03;;;;;;;11.58;100.00;98514.13;5092294;28;20085;-51
2023/04/02 06:10:57;;;;;;;8.05;2.83;;;;;;;11.62;100.00;98524.25;5050883;28;20036;-51
2023/04/02 06:13:22;;;;;;;9.05;3.58;;;;;;;11.58;100.00;98523.84;5050899;28;20046;-51
2023/04/02 06:15:48;;;;;;;12.35;4.13;;;;;;;11.54;100.00;98520.03;5034063;28;20040;-51
2023/04/02 06:18:18;;;;;;;5.78;3.53;;;;;;;11.37;100.00;98523.16;5050924;28;20553;-50
2023/04/02 06:20:45;;;;;;;7.25;3.78;;;;;;;11.17;100.00;98525.06;5034026;28;20029;-51
2023/04/02 06:23:37;;;;;;;4.03;3.63;;;;;;;10.99;100.00;98525.72;5033997;28;20131;-51
2023/04/02 06:26:14;;;;;;;5.85;4.35;;;;;;;11.02;100.00;98529.75;5050332;28;20099;-50
2023/04/02 06:29:13;;;;;;;6.75;4.30;;;;;;;10.98;100.00;98529.34;5033942;28;20128;-50
2023/04/02 06:31:44;;;;;;;19.08;5.18;;;;;;;11.16;100.00;98536.56;5030940;28;20037;-50
2023/04/02 06:34:27;;;;;;;8.57;4.47;;;;;;;11.33;100.00;98539.56;5033757;28;20032;-50
2023/04/02 06:37:26;;;;;;;7.32;4.32;;;;;;;11.25;100.00;98542.38;5033676;28;20024;-51
2023/04/02 06:39:52;;;;;;;15.68;3.95;;;;;;;11.24;100.00;98544.22;5049881;28;20117;-50
2023/04/02 06:42:28;;;;;;;13.02;4.60;;;;;;;11.54;100.00;98546.31;5097786;28;20405;-50
2023/04/02 06:44:54;;;;;;;6.15;4.20;;;;;;;11.75;100.00;98551.28;5092742;28;20034;-50
2023/04/02 06:47:34;;;;;;;12.48;3.92;;;;;;;11.87;100.00;98553.22;5092672;28;20036;-50
2023/04/02 06:50:03;;;;;;;7.20;3.45;;;;;;;12.07;100.00;98558.38;5108396;28;20032;-50
2023/04/02 06:52:35;;;;;;;11.60;4.90;;;;;;;12.19;100.00;98560.13;5108613;28;20047;-51
2023/04/02 06:55:18;;;;;;;3.45;1.98;;;;;;;12.14;100.00;98557.31;5091760;28;20110;-50
2023/04/02 06:57:47;;;;;;;9.40;2.70;;;;;;;12.12;100.00;98561.97;5092656;28;20020;-50
2023/04/02 07:00:31;;;;;;;6.10;2.70;;;;;;;12.12;100.00;98572.50;5108167;28;20020;-48
2023/04/02 07:03:00;;;;;;;4.90;2.80;;;;;;;12.17;100.00;98563.97;5108199;28;20085;-48
2023/04/02 07:05:27;;;;;;;10.63;3.40;;;;;;;12.17;100.00;98570.06;5092409;28;20020;-48
2023/04/02 07:07:52;;;;;;;4.28;2.75;;;;;;;12.15;100.00;98573.91;5092315;28;20095;-48
2023/04/02 07:10:19;;;;;;;8.45;3.67;;;;;;;12.09;100.00;98574.75;5107988;28;20097;-50
2023/04/02 07:12:45;;;;;;;12.82;3.28;;;;;;;12.15;100.00;98579.16;5091066;28;20024;-50
2023/04/02 07:15:18;;;;;;;6.80;2.38;;;;;;;12.21;100.00;98575.66;5107931;28;20030;-51
2023/04/02 07:17:45;;;;;;;6.20;2.33;;;;;;;12.17;100.00;98583.22;5092290;28;20027;-51
2023/04/02 07:20:28;;;;;;;7.78;3.13;;;;;;;12.11;100.00;98580.59;5107815;28;20024;-50
2023/04/02 07:22:54;;;;;;;3.97;2.00;;;;;;;12.12;100.00;98588.28;5107880;28;20027;-51
2023/04/02 07:25:20;;;;;;;13.13;4.70;;;;;;;12.03;100.00;98596.63;5092022;28;20048;-51
2023/04/02 07:27:46;;;;;;;10.93;2.90;;;;;;;11.73;100.00;98590.09;5073963;28;20116;-51
2023/04/02 07:30:12;;;;;;;8.68;3.63;;;;;;;11.63;100.00;98604.69;5091949;28;20098;-50
2023/04/02 07:32:38;;;;;;;7.45;2.95;;;;;;;11.60;100.00;98605.94;5073926;28;20031;-51
2023/04/02 07:35:04;;;;;;;6.07;2.60;;;;;;;11.39;100.00;98601.78;5107702;28;20020;-51
2023/04/02 07:37:30;;;;;;;5.85;3.10;;;;;;;11.09;100.00;98610.13;5107668;28;20030;-51
2023/04/02 07:39:56;;;;;;;9.43;4.13;;;;;;;11.12;100.00;98606.28;5107663;28;20028;-51
2023/04/02 07:42:22;;;;;;;9.52;3.42;;;;;;;11.40;100.00;98617.31;5107617;28;20482;-51
2023/04/02 07:44:48;;;;;;;6.75;3.97;;;;;;;11.69;100.00;98619.63;5107563;28;20494;-51
2023/04/02 07:47:13;;;;;;;8.65;3.90;;;;;;;11.88;100.00;98621.38;5091812;28;20498;-51
2023/04/02 07:49:39;;;;;;;6.72;3.05;;;;;;;12.01;100.00;98623.16;5091933;28;20031;-51
2023/04/02 07:52:05;;;;;;;6.70;3.35;;;;;;;12.12;100.00;98629.59;5091862;28;20098;-51
2023/04/02 07:54:31;;;;;;;3.33;2.83;;;;;;;12.13;100.00;98632.00;5093849;28;20020;-51
2023/04/02 07:56:57;;;;;;;8.23;3.28;;;;;;;12.21;100.00;98635.38;5094772;28;20393;-51
2023/04/02 07:59:22;;;;;;;4.75;2.90;;;;;;;12.23;100.00;98639.41;5094801;28;20028;-51
2023/04/02 08:01:48;;;;;;;5.22;2.50;;;;;;;12.12;100.00;98634.84;5111655;28;20486;-51
2023/04/02 08:04:21;;;;;;;5.90;2.47;;;;;;;11.76;100.00;98636.19;5094613;28;20028;-51
2023/04/02 08:06:48;;;;;;;4.25;2.53;;;;;;;11.42;100.00;98640.75;5111482;28;20042;-51
2023/04/02 08:09:16;;;;;;;7.10;3.10;;;;;;;11.41;100.00;98641.78;5095877;28;20054;-50
2023/04/02 08:11:42;;;;;;;5.93;2.83;;;;;;;11.60;100.00;98648.00;5095804;28;20019;-50
2023/04/02 08:14:09;;;;;;;5.55;2.45;;;;;;;11.89;100.00;98648.50;5095731;28;20598;-50
2023/04/02 08:16:51;;;;;;;8.45;2.42;;;;;;;12.23;100.00;98638.63;5111305;28;20020;-50
2023/04/02 08:19:17;;;;;;;2.13;1.92;;;;;;;12.71;100.00;98643.34;5111419;28;20026;-48
2023/04/02 08:21:43;;;;;;;4.28;2.00;;;;;;;13.20;100.00;98641.69;5095619;28;20031;-48
2023/04/02 08:24:09;;;;;;;6.03;1.80;;;;;;;13.40;100.00;98644.16;5095616;28;20028;-48
2023/04/02 08:26:35;;;;;;;6.57;2.10;;;;;;;13.57;100.00;98641.72;5095171;28;20049;-48
2023/04/02 08:29:01;;;;;;;3.35;1.83;;;;;;;13.62;100.00;98648.97;5111089;28;20032;-48
2023/04/02 08:31:27;;;;;;;3.72;1.50;;;;;;;13.84;100.00;98649.31;5095377;28;20028;-48
2023/04/02 08:33:55;;;;;;;2.03;1.75;;;;;;;14.08;100.00;98648.38;5111013;28;20027;-48
2023/04/02 08:36:27;;;;;;;4.38;1.73;;;;;;;14.39;100.00;98654.47;5095362;28;20020;-48
2023/04/02 08:38:53;;;;;;;3.65;1.10;;;;;;;14.68;100.00;98650.19;5095327;28;20502;-48
2023/04/02 08:41:29;;;;;;;3.03;1.30;;;;;;;14.90;98.51;98658.34;5095200;28;20099;-48
2023/04/02 08:44:17;;;;;;;2.75;1.40;;;;;;;14.98;98.18;98663.28;5095155;28;20070;-48
2023/04/02 08:46:49;;;;;;;1.58;1.20;;;;;;;15.14;99.73;98661.00;5095035;28;20024;-48
2023/04/02 08:49:31;;;;;;;3.00;1.13;;;;;;;15.21;99.14;98666.97;5110803;28;20024;-48
2023/04/02 08:51:57;;;;;;;6.55;1.75;;;;;;;15.17;98.50;98666.66;5094973;28;20562;-48
2023/04/02 08:54:29;;;;;;;3.42;1.13;;;;;;;15.01;96.91;98667.34;5076917;28;20396;-48
2023/04/02 08:57:06;;;;;;;2.15;1.33;;;;;;;14.96;96.71;98670.66;5095113;28;20020;-48
2023/04/02 08:59:35;;;;;;;2.90;1.30;;;;;;;14.95;96.96;98666.41;5110532;28;20032;-48
2023/04/02 09:02:46;;;;;;;5.90;1.50;;;;;;;14.84;96.24;98671.69;5110471;28;20512;-48
2023/04/02 09:05:21;;;;;;;3.72;1.42;;;;;;;14.62;95.33;98676.69;5080008;28;20032;-48
2023/04/02 09:07:49;;;;;;;3.83;0.95;;;;;;;14.51;94.06;98675.63;5094381;28;20520;-48
2023/04/02 09:10:16;;;;;;;2.75;1.38;;;;;;;14.40;92.37;98677.19;5094702;28;20028;-48
2023/04/02 09:12:50;;;;;;;3.90;2.30;;;;;;;14.25;92.22;98680.25;5110288;28;20024;-48
2023/04/02 09:15:19;;;;;;;3.28;2.10;;;;;;;14.37;93.23;98689.00;5094534;28;20481;-48
2023/04/02 09:17:45;;;;;;;4.07;2.05;;;;;;;14.70;94.62;98689.56;5094715;28;20048;-47
2023/04/02 09:20:32;;;;;;;4.35;2.42;;;;;;;15.00;91.96;98686.84;5110182;28;20112;-47
2023/04/02 09:22:58;;;;;;;3.65;1.42;;;;;;;15.05;90.61;98684.34;5094421;28;20054;-48
2023/04/02 09:25:26;;;;;;;7.50;1.80;;;;;;;14.77;88.58;98693.72;5109788;28;20529;-48
2023/04/02 09:27:54;;;;;;;7.25;1.30;;;;;;;14.77;89.49;98695.56;5076053;28;20028;-48
2023/04/02 09:30:42;;;;;;;4.60;1.73;;;;;;;14.85;86.85;98695.25;5109899;28;20051;-48
2023/04/02 09:33:08;;;;;;;3.45;1.70;;;;;;;15.28;85.13;98696.75;5109933;28;20449;-49
2023/04/02 09:35:36;;;;;;;2.97;1.38;;;;;;;15.60;84.19;98695.59;5094100;28;20028;-48
2023/04/02 09:38:31;;;;;;;1.85;1.10;;;;;;;15.92;83.53;98703.94;5092790;28;20024;-49
2023/04/02 09:41:03;;;;;;;3.60;1.30;;;;;;;16.21;80.17;98707.41;5094064;28;20115;-49
2023/04/02 09:43:34;;;;;;;2.78;0.95;;;;;;;16.31;78.49;98702.28;5094052;28;20020;-49
2023/04/02 09:46:15;;;;;;;3.38;1.20;;;;;;;16.30;77.37;98702.56;5093796;28;20077;-49
2023/04/02 09:48:52;;;;;;;5.25;1.30;;;;;;;16.41;81.01;98704.31;5092715;28;20447;-49
2023/04/02 09:51:20;;;;;;;10.98;4.45;;;;;;;16.64;77.01;98702.59;5093827;28;20535;-49
2023/04/02 09:54:02;;;;;;;13.13;11.73;;;;;;;16.54;70.50;98706.69;5093778;28;20016;-49
2023/04/02 09:56:29;;;;;;;5.88;2.70;;;;;;;16.38;74.72;98702.16;5092411;28;20016;-49
2023/04/02 09:59:04;;;;;;;8.93;2.45;;;;;;;16.25;74.39;98707.75;5109342;28;20035;-49
2023/04/02 10:01:37;;;;;;;3.97;1.40;;;;;;;16.21;72.04;98704.75;5093728;28;20091;-49
2023/04/02 10:04:06;;;;;;;5.32;1.15;;;;;;;15.93;71.11;98708.19;5093610;28;20039;-49
2023/04/02 10:06:33;;;;;;;1.73;0.90;;;;;;;15.62;72.99;98717.31;5093502;28;20055;-49
2023/04/02 10:09:28;;;;;;;4.35;1.17;;;;;;;15.66;76.80;98707.88;5109250;28;20032;-49
2023/04/02 10:11:56;;;;;;;3.45;1.33;;;;;;;15.80;70.94;98706.63;5093461;28;20020;-49
2023/04/02 10:14:35;;;;;;;1.30;0.63;;;;;;;15.78;71.87;98720.06;5093386;28;20024;-49
2023/04/02 10:17:26;;;;;;;3.15;1.10;;;;;;;15.83;72.58;98713.28;5093202;28;20023;-49
2023/04/02 10:20:04;;;;;;;6.03;0.82;;;;;;;16.11;70.16;98708.00;5093337;28;20061;-49
2023/04/02 10:22:31;;;;;;;10.38;1.13;;;;;;;16.52;67.60;98708.78;5108953;28;20028;-49
2023/04/02 10:24:57;;;;;;;4.03;0.82;;;;;;;16.50;63.01;98710.03;5108663;28;20048;-49
2023/04/02 10:27:36;;;;;;;1.05;0.80;;;;;;;16.01;62.28;98718.41;5091863;28;20028;-48
2023/04/02 10:30:26;;;;;;;2.85;0.90;;;;;;;15.65;66.71;98722.94;5093152;28;20028;-49
2023/04/02 10:33:00;;;;;;;6.53;1.02;;;;;;;15.59;64.97;98715.91;5093065;28;20520;-49
2023/04/02 10:35:37;;;;;;;1.75;0.70;;;;;;;15.76;64.86;98727.44;5092980;28;20512;-49
2023/04/02 10:38:30;;;;;;;2.33;0.73;;;;;;;15.90;67.25;98722.69;5108658;28;20065;-49
2023/04/02 10:41:15;;;;;;;4.20;1.30;;;;;;;16.26;66.71;98720.75;5092892;28;20030;-49
2023/04/02 10:44:03;;;;;;;2.17;0.80;;;;;;;16.65;67.75;98725.41;5092850;28;20107;-48
2023/04/02 10:46:35;;;;;;;1.70;0.60;;;;;;;16.74;65.22;98719.50;5092804;28;20024;-49
2023/04/02 10:49:34;;;;;;;3.85;2.00;;;;;;;16.85;65.22;98719.69;5108437;28;20401;-49
2023/04/02 10:52:12;;;;;;;8.20;1.38;;;;;;;17.11;62.02;98728.84;5091683;28;20085;-49
2023/04/02 10:54:46;;;;;;;1.10;0.70;;;;;;;17.35;62.24;98722.31;5091330;28;20072;-49
2023/04/02 10:57:21;;;;;;;2.00;0.75;;;;;;;17.34;60.53;98712.75;5092576;28;20016;-49
2023/04/02 10:59:55;;;;;;;3.15;0.82;;;;;;;17.16;57.29;98707.69;5092820;28;20386;-49
2023/04/02 11:02:30;;;;;;;1.75;0.93;;;;;;;16.82;59.24;98717.50;5108187;28;20023;-49
2023/04/02 11:05:00;;;;;;;1.38;0.70;;;;;;;16.63;62.32;98719.53;5092731;28;20055;-49
2023/04/02 11:07:30;;;;;;;0.93;0.60;;;;;;;16.74;59.51;98719.50;5091139;28;20552;-49
2023/04/02 11:09:57;;;;;;;2.08;0.70;;;;;;;16.85;59.62;98723.13;5092428;28;20016;-49
2023/04/02 11:12:47;;;;;;;5.90;1.20;;;;;;;16.65;60.51;98726.22;5091348;28;20028;-49
2023/04/02 11:15:18;;;;;;;1.80;1.00;;;;;;;16.62;59.79;98729.34;5108018;28;20106;-48
2023/04/02 11:17:45;;;;;;;1.92;0.70;;;;;;;16.49;60.87;98732.28;5107925;28;20048;-49
2023/04/02 11:20:42;;;;;;;4.45;1.00;;;;;;;16.10;61.29;98732.88;5092224;28;20028;-49
2023/04/02 11:23:19;;;;;;;3.38;0.90;;;;;;;16.15;61.13;98732.19;5092459;28;20409;-49
2023/04/02 11:25:46;;;;;;;5.88;1.00;;;;;;;16.41;60.29;98733.47;5091989;28;20054;-49
2023/04/02 11:28:28;;;;;;;0.95;0.70;;;;;;;16.68;59.52;98731.03;5090626;28;20113;-49
2023/04/02 11:30:55;;;;;;;2.70;0.80;;;;;;;16.73;59.25;98736.41;5090639;28;20465;-48
2023/04/02 11:33:30;;;;;;;1.85;0.80;;;;;;;16.76;57.73;98727.19;5092058;28;20111;-48
2023/04/02 11:35:56;;;;;;;2.53;0.95;;;;;;;16.57;58.57;98735.34;5091958;28;20028;-48
2023/04/02 11:38:21;;;;;;;1.90;0.70;;;;;;;16.21;58.06;98733.09;5092006;28;20100;-48
2023/04/02 11:40:55;;;;;;;2.10;0.80;;;;;;;16.14;59.80;98739.31;5107566;28;20020;-49
2023/04/02 11:43:32;;;;;;;3.70;0.88;;;;;;;16.54;60.36;98735.00;5091933;28;20042;-49
2023/04/02 11:46:00;;;;;;;3.88;1.00;;;;;;;16.89;58.53;98734.84;5091830;28;20504;-49
2023/04/02 11:48:34;;;;;;;2.30;1.05;;;;;;;16.96;56.50;98737.34;5107848;28;20118;-49
2023/04/02 11:51:21;;;;;;;5.60;1.42;;;;;;;16.94;56.80;98736.78;5092437;28;20103;-49
2023/04/02 11:53:49;;;;;;;2.03;0.90;;;;;;;16.76;57.16;98738.59;5090158;28;20056;-49
2023/04/02 11:56:27;;;;;;;7.63;1.15;;;;;;;16.45;56.66;98737.25;5107502;28;20088;-49
2023/04/02 11:59:16;;;;;;;1.67;0.90;;;;;;;16.13;58.04;98742.19;5092092;28;20027;-49
2023/04/02 12:02:27;;;;;;;5.15;1.20;;;;;;;15.87;59.44;98748.81;5107406;28;20031;-49
2023/04/02 12:05:15;;;;;;;2.03;0.90;;;;;;;15.94;60.65;98750.31;5069192;28;20486;-49
2023/04/02 12:08:26;;;;;;;2.72;0.70;;;;;;;15.90;63.48;98753.66;5069212;28;20048;-49
2023/04/02 12:11:00;;;;;;;4.15;1.00;;;;;;;15.70;62.20;98752.16;5055134;28;20036;-49